Time;durP1;ratioP1;P1;durP2;ratioP2;P2;SDS_P1;SDS_P2;PMS_P1;PMS_P2;Temp;Humidity;BMP_temperature;BMP_pressure;BME280_temperature;BME280_humidity;BME280_pressure;Samples;Min_cycle;Max_cycle;Signal;HPM_P1;HPM_P2
2022/05/09 00:01:18;;;;;;;1999.90;999.90;;;;;;;-143.90;100.00;55121.16;2066549;28;20058;-65
2022/05/09 00:02:39;;;;;;;1999.90;999.90;;;;;;;-143.90;100.00;55156.88;2072281;28;20033;-63
2022/05/09 00:03:59;;;;;;;1999.90;999.90;;;;;;;-143.90;100.00;55111.22;2068905;28;20358;-64
2022/05/09 00:05:24;;;;;;;1999.90;999.90;;;;;;;-143.90;100.00;55146.97;2066640;28;20457;-65
2022/05/09 00:06:46;;;;;;;1999.90;999.90;;;;;;;-143.90;100.00;55119.16;2065944;28;20328;-65
2022/05/09 00:08:06;;;;;;;1999.90;999.90;;;;;;;-143.90;100.00;55137.03;2065291;28;20284;-65
2022/05/09 00:09:27;;;;;;;1999.90;999.90;;;;;;;-143.90;100.00;55129.09;2066320;28;20136;-65
2022/05/09 00:10:51;;;;;;;1999.90;999.90;;;;;;;-143.90;100.00;55135.03;2066185;28;20038;-66
2022/05/09 00:12:11;;;;;;;1999.90;999.90;;;;;;;-143.90;100.00;55103.28;2066203;28;20030;-65
2022/05/09 00:13:32;;;;;;;1999.90;999.90;;;;;;;-143.90;100.00;55174.75;2066997;28;20305;-64
2022/05/09 00:14:53;;;;;;;1999.90;999.90;;;;;;;-143.90;100.00;55107.25;2067331;28;20850;-65
2022/05/09 00:16:13;;;;;;;1999.90;999.90;;;;;;;-143.90;100.00;55143.00;2066848;28;20283;-65
2022/05/09 00:17:34;;;;;;;1999.90;999.90;;;;;;;-143.90;100.00;55139.03;2065792;28;20292;-65
2022/05/09 00:18:55;;;;;;;1999.90;999.90;;;;;;;-143.90;100.00;55087.41;2066197;28;20411;-65
2022/05/09 00:20:17;;;;;;;1999.90;999.90;;;;;;;-143.90;100.00;55087.41;2065940;28;20285;-65
2022/05/09 00:21:40;;;;;;;1999.90;999.90;;;;;;;-143.90;100.00;55121.16;2067577;28;20316;-65
2022/05/09 00:23:00;;;;;;;1999.90;999.90;;;;;;;-143.90;100.00;55107.25;2066209;28;20350;-65
2022/05/09 00:24:22;;;;;;;1999.90;999.90;;;;;;;-143.90;100.00;55150.94;2067664;28;20288;-64
2022/05/09 00:25:44;;;;;;;1999.90;999.90;;;;;;;-143.90;100.00;55107.25;2066348;28;20343;-65
2022/05/09 00:27:05;;;;;;;1999.90;999.90;;;;;;;-143.90;100.00;55143.00;2067215;28;20299;-64
2022/05/09 00:28:26;;;;;;;1999.90;999.90;;;;;;;-143.90;100.00;55111.22;2069062;28;20038;-65
2022/05/09 00:29:47;;;;;;;1999.90;999.90;;;;;;;-143.90;100.00;55166.81;2067313;28;20315;-65
2022/05/09 00:31:08;;;;;;;1999.90;999.90;;;;;;;-143.90;100.00;55131.06;2066352;28;20280;-65
2022/05/09 00:32:29;;;;;;;1999.90;999.90;;;;;;;-143.90;100.00;55144.97;2064867;28;20300;-64
2022/05/09 00:33:50;;;;;;;1999.90;999.90;;;;;;;-143.90;100.00;55087.41;2067105;28;20386;-65
2022/05/09 00:35:12;;;;;;;1999.90;999.90;;;;;;;-143.90;100.00;55101.28;2066734;28;20048;-64
2022/05/09 00:36:33;;;;;;;1999.90;999.90;;;;;;;-143.90;100.00;55131.06;2066300;28;20037;-65
2022/05/09 00:37:55;;;;;;;1999.90;999.90;;;;;;;-143.90;100.00;55139.03;2066496;28;20037;-65
2022/05/09 00:39:16;;;;;;;1999.90;999.90;;;;;;;-143.90;100.00;55119.16;2067595;28;20779;-65
2022/05/09 00:40:38;;;;;;;1999.90;999.90;;;;;;;-143.90;100.00;55111.22;2068473;28;20368;-66
2022/05/09 00:42:10;;;;;;;1999.90;999.90;;;;;;;-143.90;100.00;55123.13;2067226;28;20331;-66
2022/05/09 00:43:34;;;;;;;1999.90;999.90;;;;;;;-143.90;100.00;55131.06;2065123;28;20072;-64
2022/05/09 00:44:58;;;;;;;1999.90;999.90;;;;;;;-143.90;100.00;55166.81;2067116;28;20030;-65
2022/05/09 00:46:19;;;;;;;1999.90;999.90;;;;;;;-143.90;100.00;55148.94;2065969;28;20383;-65
2022/05/09 00:47:40;;;;;;;1999.90;999.90;;;;;;;-143.90;100.00;55111.22;2067181;28;20273;-66
2022/05/09 00:49:16;;;;;;;1999.90;999.90;;;;;;;-143.90;100.00;55135.03;2066578;28;20318;-65
2022/05/09 00:50:37;;;;;;;1999.90;999.90;;;;;;;-143.90;100.00;55123.13;2067395;28;20033;-65
2022/05/09 00:52:30;;;;;;;1999.90;999.90;;;;;;;-143.90;100.00;55115.19;2065702;28;20367;-66
2022/05/09 00:53:52;;;;;;;1999.90;999.90;;;;;;;-143.90;100.00;55117.19;2065323;28;20034;-65
2022/05/09 00:55:19;;;;;;;1999.90;999.90;;;;;;;-143.90;100.00;55143.00;2064065;28;20285;-65
2022/05/09 00:56:44;;;;;;;1999.90;999.90;;;;;;;-143.90;100.00;55135.03;2067081;28;20865;-66
2022/05/09 00:58:05;;;;;;;1999.90;999.90;;;;;;;-143.90;100.00;55146.97;2066239;28;20276;-66
2022/05/09 00:59:28;;;;;;;1999.90;999.90;;;;;;;-143.90;100.00;55107.25;2063650;28;20300;-65
2022/05/09 01:00:50;;;;;;;1999.90;999.90;;;;;;;-143.90;100.00;55107.25;2065552;28;20030;-65
2022/05/09 01:02:12;;;;;;;;;;;;;;;-143.90;100.00;55099.31;2067596;28;20324;-65
2022/05/09 01:03:43;;;;;;;1999.90;999.90;;;;;;;-143.90;100.00;55146.97;2063929;28;19920;-65
2022/05/09 01:05:05;;;;;;;1999.90;999.90;;;;;;;-143.90;100.00;55125.13;2066107;28;20115;-65
2022/05/09 01:06:26;;;;;;;1999.90;999.90;;;;;;;-143.90;100.00;55095.34;2065751;28;20033;-65
2022/05/09 01:07:48;;;;;;;1999.90;999.90;;;;;;;-143.90;100.00;55139.03;2054777;28;20587;-64
2022/05/09 01:09:12;;;;;;;1999.90;999.90;;;;;;;-143.90;100.00;55073.50;2065107;28;20038;-64
2022/05/09 01:10:36;;;;;;;1999.90;999.90;;;;;;;-143.90;100.00;55127.09;2066344;28;20332;-65
2022/05/09 01:11:57;;;;;;;1999.90;999.90;;;;;;;-143.90;100.00;55123.13;2070992;28;20284;-65
2022/05/09 01:13:19;;;;;;;1999.90;999.90;;;;;;;-143.90;100.00;55111.22;2063798;28;20294;-65
2022/05/09 01:14:40;;;;;;;1999.90;999.90;;;;;;;-143.90;100.00;55097.31;2065157;28;20042;-64
2022/05/09 01:16:04;;;;;;;1999.90;999.90;;;;;;;-143.90;100.00;55131.06;2066137;28;20346;-67
2022/05/09 01:17:25;;;;;;;1999.90;999.90;;;;;;;-143.90;100.00;55135.03;2066330;28;21065;-66
2022/05/09 01:18:46;;;;;;;1999.90;999.90;;;;;;;-143.90;100.00;55129.09;2066466;28;20292;-64
2022/05/09 01:20:09;;;;;;;1999.90;999.90;;;;;;;-143.90;100.00;55125.13;2067322;28;20597;-67
2022/05/09 01:21:39;;;;;;;1999.90;999.90;;;;;;;-143.90;100.00;55125.13;2067372;28;20125;-63
2022/05/09 01:23:00;;;;;;;1999.90;999.90;;;;;;;-143.90;100.00;55129.09;2067425;28;20307;-65
2022/05/09 01:24:23;;;;;;;1999.90;999.90;;;;;;;-143.90;100.00;55115.19;2067035;28;20276;-64
2022/05/09 01:25:44;;;;;;;1999.90;999.90;;;;;;;-143.90;100.00;55144.97;2065918;28;20103;-67
2022/05/09 01:27:05;;;;;;;1999.90;999.90;;;;;;;-143.90;100.00;55123.13;2067403;28;20283;-66
2022/05/09 01:28:25;;;;;;;1999.90;999.90;;;;;;;-143.90;100.00;55095.34;2066724;28;20065;-65
2022/05/09 01:29:56;;;;;;;1999.90;999.90;;;;;;;-143.90;100.00;55099.31;2066750;28;20062;-65
2022/05/09 01:31:18;;;;;;;1999.90;999.90;;;;;;;-143.90;100.00;55095.34;2065288;28;20415;-65
2022/05/09 01:32:48;;;;;;;1999.90;999.90;;;;;;;-143.90;100.00;55127.09;2064838;28;20372;-67
2022/05/09 01:34:10;;;;;;;1999.90;999.90;;;;;;;-143.90;100.00;55127.09;2065770;28;20287;-66
2022/05/09 01:35:38;;;;;;;1999.90;999.90;;;;;;;-143.90;100.00;55065.56;2066225;28;20276;-66
2022/05/09 01:37:03;;;;;;;1999.90;999.90;;;;;;;-143.90;100.00;55107.25;2067096;28;20660;-65
2022/05/09 01:38:37;;;;;;;1999.90;999.90;;;;;;;-143.90;100.00;55127.09;2066833;28;20367;-64
2022/05/09 01:39:57;;;;;;;1999.90;999.90;;;;;;;-143.90;100.00;55087.41;2065419;28;20307;-66
2022/05/09 01:41:18;;;;;;;1999.90;999.90;;;;;;;-143.90;100.00;55103.28;2066413;28;20297;-66
2022/05/09 01:42:42;;;;;;;1999.90;999.90;;;;;;;-143.90;100.00;55154.91;2066576;28;20307;-67
2022/05/09 01:44:04;;;;;;;1999.90;999.90;;;;;;;-143.90;100.00;55095.34;2066574;28;20277;-64
2022/05/09 01:45:24;;;;;;;1999.90;999.90;;;;;;;-143.90;100.00;55139.03;2066124;28;20391;-67
2022/05/09 01:50:06;;;;;;;1999.90;999.90;;;;;;;-143.90;100.00;55095.34;2064939;28;20287;-66
2022/05/09 01:51:28;;;;;;;1999.90;999.90;;;;;;;-143.90;100.00;55139.03;2063956;28;20399;-66
2022/05/09 01:52:49;;;;;;;1999.90;999.90;;;;;;;-143.90;100.00;55095.34;2066122;28;20802;-65
2022/05/09 01:54:14;;;;;;;1999.90;999.90;;;;;;;-143.90;100.00;55123.13;2066131;28;20042;-65
2022/05/09 01:55:35;;;;;;;1999.90;999.90;;;;;;;-143.90;100.00;55119.16;2066749;28;20574;-67
2022/05/09 01:56:56;;;;;;;1999.90;999.90;;;;;;;-143.90;100.00;55127.09;2066164;28;20288;-65
2022/05/09 01:58:18;;;;;;;1999.90;999.90;;;;;;;-143.90;100.00;55111.22;2065027;28;20322;-64
2022/05/09 01:59:42;;;;;;;1999.90;999.90;;;;;;;-143.90;100.00;55075.47;2065826;28;20038;-66
2022/05/09 02:01:04;;;;;;;1999.90;999.90;;;;;;;-143.90;100.00;55119.16;2066217;28;21064;-64
2022/05/09 02:02:24;;;;;;;1999.90;999.90;;;;;;;-143.90;100.00;55109.22;2062391;28;20034;-64
2022/05/09 02:03:45;;;;;;;1999.90;999.90;;;;;;;-143.90;100.00;55162.84;2065772;28;20038;-65
2022/05/09 02:05:11;;;;;;;1999.90;999.90;;;;;;;-143.90;100.00;55135.03;2066007;28;21033;-65
2022/05/09 02:06:32;;;;;;;1999.90;999.90;;;;;;;-143.90;100.00;55099.31;2064287;28;20373;-63
2022/05/09 02:07:54;;;;;;;1999.90;999.90;;;;;;;-143.90;100.00;55085.41;2065322;28;20994;-65
2022/05/09 02:09:14;;;;;;;1999.90;999.90;;;;;;;-143.90;100.00;55143.00;2064867;28;20295;-65
2022/05/09 02:10:35;;;;;;;1999.90;999.90;;;;;;;-143.90;100.00;55127.09;2065323;28;20041;-65
2022/05/09 02:11:56;;;;;;;1999.90;999.90;;;;;;;-143.90;100.00;55125.13;2066057;28;20292;-65
2022/05/09 02:13:17;;;;;;;1999.90;999.90;;;;;;;-143.90;100.00;55115.19;2067168;28;20803;-64
2022/05/09 02:14:38;;;;;;;1999.90;999.90;;;;;;;-143.90;100.00;55119.16;2066570;28;20496;-66
2022/05/09 02:15:59;;;;;;;1999.90;999.90;;;;;;;-143.90;100.00;55150.94;2067473;28;20866;-66
2022/05/09 02:17:19;;;;;;;1999.90;999.90;;;;;;;-143.90;100.00;55095.34;2065194;28;20659;-67
2022/05/09 02:18:40;;;;;;;1999.90;999.90;;;;;;;-143.90;100.00;55123.13;2063469;28;21411;-67
2022/05/09 02:20:01;;;;;;;1999.90;999.90;;;;;;;-143.90;100.00;55139.03;2064396;28;20320;-66
2022/05/09 02:21:22;;;;;;;1999.90;999.90;;;;;;;-143.90;100.00;55131.06;2065288;28;20309;-66
2022/05/09 02:22:42;;;;;;;1999.90;999.90;;;;;;;-143.90;100.00;55137.03;2064794;28;20387;-66
2022/05/09 02:24:03;;;;;;;1999.90;999.90;;;;;;;-143.90;100.00;55079.44;2066296;28;20156;-66
2022/05/09 02:25:29;;;;;;;1999.90;999.90;;;;;;;-143.90;100.00;55115.19;2064653;28;20049;-65
2022/05/09 02:26:50;;;;;;;1999.90;999.90;;;;;;;-143.90;100.00;55083.41;2066501;28;20026;-65
2022/05/09 02:28:12;;;;;;;1999.90;999.90;;;;;;;-143.90;100.00;55115.19;2067279;28;20312;-65
2022/05/09 02:29:33;;;;;;;1999.90;999.90;;;;;;;-143.90;100.00;55091.38;2065580;28;20485;-65
2022/05/09 02:30:53;;;;;;;1999.90;999.90;;;;;;;-143.90;100.00;55091.38;2066779;28;20363;-67
2022/05/09 02:32:16;;;;;;;1999.90;999.90;;;;;;;-143.90;100.00;55115.19;2064196;28;20308;-66
2022/05/09 02:33:37;;;;;;;1999.90;999.90;;;;;;;-143.90;100.00;55099.31;2063719;28;20287;-67
2022/05/09 02:34:57;;;;;;;1999.90;999.90;;;;;;;-143.90;100.00;55131.06;2065252;28;20292;-66
2022/05/09 02:36:18;;;;;;;1999.90;999.90;;;;;;;-143.90;100.00;55087.41;2067830;28;20327;-67
2022/05/09 02:37:39;;;;;;;1999.90;999.90;;;;;;;-143.90;100.00;55131.06;2066671;28;20696;-65
2022/05/09 02:39:00;;;;;;;1999.90;999.90;;;;;;;-143.90;100.00;55115.19;2063721;28;20512;-65
2022/05/09 02:40:23;;;;;;;1999.90;999.90;;;;;;;-143.90;100.00;55091.38;2063966;28;20375;-66
2022/05/09 02:41:44;;;;;;;1999.90;999.90;;;;;;;-143.90;100.00;55095.34;2064347;28;21255;-65
2022/05/09 02:43:06;;;;;;;1999.90;999.90;;;;;;;-143.90;100.00;55131.06;2066641;28;20976;-65
2022/05/09 02:44:28;;;;;;;1999.90;999.90;;;;;;;-143.90;100.00;55079.44;2065051;28;20288;-65
2022/05/09 02:45:49;;;;;;;1999.90;999.90;;;;;;;-143.90;100.00;55111.22;2064334;28;20296;-66
2022/05/09 02:47:09;;;;;;;1999.90;999.90;;;;;;;-143.90;100.00;55133.06;2065536;28;20042;-64
2022/05/09 02:48:32;;;;;;;1999.90;999.90;;;;;;;-143.90;100.00;55121.16;2064720;28;20044;-65
2022/05/09 02:49:53;;;;;;;1999.90;999.90;;;;;;;-143.90;100.00;55133.06;2066336;28;20096;-65
2022/05/09 02:51:14;;;;;;;1999.90;999.90;;;;;;;-143.90;100.00;55093.34;2066495;28;20288;-65
2022/05/09 02:52:37;;;;;;;1999.90;999.90;;;;;;;-143.90;100.00;55095.34;2064806;28;20304;-65
2022/05/09 02:53:58;;;;;;;1999.90;999.90;;;;;;;-143.90;100.00;55115.19;2063950;28;20408;-65
2022/05/09 02:55:20;;;;;;;1999.90;999.90;;;;;;;-143.90;100.00;55099.31;2064888;28;20077;-65
2022/05/09 02:56:40;;;;;;;1999.90;999.90;;;;;;;-143.90;100.00;55117.19;2065539;28;20387;-65
2022/05/09 02:58:01;;;;;;;1999.90;999.90;;;;;;;-143.90;100.00;55123.13;2065423;28;20048;-65
2022/05/09 02:59:22;;;;;;;1999.90;999.90;;;;;;;-143.90;100.00;55099.31;2065645;28;20401;-65
2022/05/09 03:00:43;;;;;;;1999.90;999.90;;;;;;;-143.90;100.00;55077.47;2064967;28;20034;-65
2022/05/09 03:02:04;;;;;;;1999.90;999.90;;;;;;;-143.90;100.00;55111.22;2065696;28;20494;-67
2022/05/09 03:05:05;;;;;;;1999.90;999.90;;;;;;;-143.90;100.00;55107.25;2065349;28;20830;-66
2022/05/09 03:06:26;;;;;;;1999.90;999.90;;;;;;;-143.90;100.00;55109.22;2067231;28;20312;-66
2022/05/09 03:07:47;;;;;;;1999.90;999.90;;;;;;;-143.90;100.00;55075.47;2067219;28;20049;-67
2022/05/09 03:09:08;;;;;;;1999.90;999.90;;;;;;;-143.90;100.00;55115.19;2065055;28;20034;-67
2022/05/09 03:10:31;;;;;;;1999.90;999.90;;;;;;;-143.90;100.00;55089.38;2065040;28;20301;-64
2022/05/09 03:11:52;;;;;;;1999.90;999.90;;;;;;;-143.90;100.00;55083.41;2064751;28;20053;-65
2022/05/09 03:13:14;;;;;;;1999.90;999.90;;;;;;;-143.90;100.00;55121.16;2065513;28;20296;-65
2022/05/09 03:14:35;;;;;;;1999.90;999.90;;;;;;;-143.90;100.00;55109.22;2065538;28;20303;-65
2022/05/09 03:15:58;;;;;;;1999.90;999.90;;;;;;;-143.90;100.00;55103.28;2063806;28;20368;-66
2022/05/09 03:17:19;;;;;;;1999.90;999.90;;;;;;;-143.90;100.00;55083.41;2062904;28;20034;-65
2022/05/09 03:18:39;;;;;;;1999.90;999.90;;;;;;;-143.90;100.00;55107.25;2070273;28;20395;-65
2022/05/09 03:20:00;;;;;;;1999.90;999.90;;;;;;;-143.90;100.00;55143.00;2066317;28;20030;-66
2022/05/09 03:21:21;;;;;;;1999.90;999.90;;;;;;;-143.90;100.00;55135.03;2066020;28;20285;-65
2022/05/09 03:22:41;;;;;;;1999.90;999.90;;;;;;;-143.90;100.00;55091.38;2066503;28;20296;-64
2022/05/09 03:24:02;;;;;;;1999.90;999.90;;;;;;;-143.90;100.00;55131.06;2067776;28;20285;-65
2022/05/09 03:25:23;;;;;;;1999.90;999.90;;;;;;;-143.90;100.00;55143.00;2065760;28;20292;-66
2022/05/09 03:26:44;;;;;;;1999.90;999.90;;;;;;;-143.90;100.00;55119.16;2065535;28;20053;-65
2022/05/09 03:28:06;;;;;;;1999.90;999.90;;;;;;;-143.90;100.00;55119.16;2065607;28;20042;-65
2022/05/09 03:29:28;;;;;;;1999.90;999.90;;;;;;;-143.90;100.00;55101.28;2067033;28;20292;-65
2022/05/09 03:30:50;;;;;;;1999.90;999.90;;;;;;;-143.90;100.00;55095.34;2068115;28;20285;-65
2022/05/09 03:32:11;;;;;;;1999.90;999.90;;;;;;;-143.90;100.00;55103.28;2068107;28;20519;-64
2022/05/09 03:33:31;;;;;;;1999.90;999.90;;;;;;;-143.90;100.00;55083.41;2066072;28;20327;-65
2022/05/09 03:34:54;;;;;;;1999.90;999.90;;;;;;;-143.90;100.00;55107.25;2067243;28;20030;-66
2022/05/09 03:36:15;;;;;;;;;;;;;;;-143.90;100.00;55109.22;2065600;28;20053;-66
2022/05/09 03:37:36;;;;;;;1999.90;999.90;;;;;;;-143.90;100.00;55095.34;2066238;28;19917;-65
2022/05/09 03:38:57;;;;;;;1999.90;999.90;;;;;;;-143.90;100.00;55123.13;2067711;28;20660;-64
2022/05/09 03:40:20;;;;;;;;;;;;;;;-143.90;100.00;55146.97;2067431;28;20034;-65
2022/05/09 03:41:40;;;;;;;1999.90;999.90;;;;;;;-143.90;100.00;55111.22;2066500;28;19921;-66
2022/05/09 03:43:02;;;;;;;1999.90;999.90;;;;;;;-143.90;100.00;55127.09;2066575;28;20375;-65
2022/05/09 03:44:22;;;;;;;1999.90;999.90;;;;;;;-143.90;100.00;55077.47;2064765;28;20292;-65
2022/05/09 03:45:45;;;;;;;1999.90;999.90;;;;;;;-143.90;100.00;55055.63;2067127;28;20072;-65
2022/05/09 03:47:06;;;;;;;1999.90;999.90;;;;;;;-143.90;100.00;55099.31;2071053;28;20091;-65
2022/05/09 03:48:27;;;;;;;1999.90;999.90;;;;;;;-143.90;100.00;55095.34;2068373;28;20372;-65
2022/05/09 03:49:47;;;;;;;1999.90;999.90;;;;;;;-143.90;100.00;55091.38;2066240;28;20508;-66
2022/05/09 03:51:08;;;;;;;1999.90;999.90;;;;;;;-143.90;100.00;55115.19;2068006;28;20285;-65
2022/05/09 03:52:30;;;;;;;1999.90;999.90;;;;;;;-143.90;100.00;55115.19;2067189;28;20350;-65
2022/05/09 03:53:51;;;;;;;1999.90;999.90;;;;;;;-143.90;100.00;55111.22;2066984;28;20034;-65
2022/05/09 03:55:12;;;;;;;1999.90;999.90;;;;;;;-143.90;100.00;55113.22;2066604;28;20289;-64
2022/05/09 03:56:33;;;;;;;1999.90;999.90;;;;;;;-143.90;100.00;55091.38;2067029;28;20992;-66
2022/05/09 03:57:56;;;;;;;1999.90;999.90;;;;;;;-143.90;100.00;55083.41;2068488;28;20065;-65
2022/05/09 03:59:17;;;;;;;1999.90;999.90;;;;;;;-143.90;100.00;55121.16;2067572;28;20325;-65
2022/05/09 04:00:38;;;;;;;1999.90;999.90;;;;;;;-143.90;100.00;55103.28;2067635;28;20717;-65
2022/05/09 04:01:58;;;;;;;1999.90;999.90;;;;;;;-143.90;100.00;55099.31;2066855;28;20413;-65
2022/05/09 04:03:20;;;;;;;1999.90;999.90;;;;;;;-143.90;100.00;55119.16;2066880;28;20284;-64
2022/05/09 04:04:43;;;;;;;1999.90;999.90;;;;;;;-143.90;100.00;55111.22;2066047;28;20747;-65
2022/05/09 04:06:04;;;;;;;1999.90;999.90;;;;;;;-143.90;100.00;55127.09;2064550;28;20311;-65
2022/05/09 04:07:25;;;;;;;1999.90;999.90;;;;;;;-143.90;100.00;55079.44;2065979;28;21070;-65
2022/05/09 04:08:46;;;;;;;1999.90;999.90;;;;;;;-143.90;100.00;55133.06;2066246;28;20065;-63
2022/05/09 04:10:09;;;;;;;1999.90;999.90;;;;;;;-143.90;100.00;55071.50;2067610;28;20036;-65
2022/05/09 04:11:29;;;;;;;1999.90;999.90;;;;;;;-143.90;100.00;55103.28;2064520;28;20292;-65
2022/05/09 04:12:50;;;;;;;1999.90;999.90;;;;;;;-143.90;100.00;55095.34;2065085;28;20370;-65
2022/05/09 04:14:11;;;;;;;1999.90;999.90;;;;;;;-143.90;100.00;55111.22;2066185;28;20323;-64
2022/05/09 04:17:14;;;;;;;1999.90;999.90;;;;;;;-143.90;100.00;55075.47;2066481;28;20815;-65
2022/05/09 04:18:39;;;;;;;1999.90;999.90;;;;;;;-143.90;100.00;55117.19;2058624;28;20296;-66
2022/05/09 04:20:00;;;;;;;1999.90;999.90;;;;;;;-143.90;100.00;55083.41;2063746;28;20724;-65
2022/05/09 04:21:21;;;;;;;1999.90;999.90;;;;;;;-143.90;100.00;55083.41;2066757;28;20289;-65
2022/05/09 04:22:41;;;;;;;1999.90;999.90;;;;;;;-143.90;100.00;55131.06;2066108;28;20288;-65
2022/05/09 04:24:02;;;;;;;1999.90;999.90;;;;;;;-143.90;100.00;55069.53;2067019;28;20100;-65
2022/05/09 04:25:24;;;;;;;1999.90;999.90;;;;;;;-143.90;100.00;55121.16;2068171;28;20360;-65
2022/05/09 04:26:45;;;;;;;1999.90;999.90;;;;;;;-143.90;100.00;55103.28;2066851;28;20803;-65
2022/05/09 04:28:07;;;;;;;1999.90;999.90;;;;;;;-143.90;100.00;55097.31;2067202;28;20349;-65
2022/05/09 04:29:28;;;;;;;1999.90;999.90;;;;;;;-143.90;100.00;55139.03;2065147;28;20815;-65
2022/05/09 04:30:49;;;;;;;1999.90;999.90;;;;;;;-143.90;100.00;55119.16;2067422;28;20030;-66
2022/05/09 04:32:09;;;;;;;1999.90;999.90;;;;;;;-143.90;100.00;55129.09;2067719;28;20083;-65
2022/05/09 04:33:30;;;;;;;1999.90;999.90;;;;;;;-143.90;100.00;55087.41;2067184;28;20304;-63
2022/05/09 04:34:51;;;;;;;1999.90;999.90;;;;;;;-143.90;100.00;55095.34;2066545;28;20427;-65
2022/05/09 04:36:12;;;;;;;1999.90;999.90;;;;;;;-143.90;100.00;55107.25;2068550;28;20493;-65
2022/05/09 04:37:33;;;;;;;1999.90;999.90;;;;;;;-143.90;100.00;55091.38;2069275;28;20291;-66
2022/05/09 04:38:54;;;;;;;1999.90;999.90;;;;;;;-143.90;100.00;55067.53;2066504;28;20042;-65
2022/05/09 04:40:26;;;;;;;1999.90;999.90;;;;;;;-143.90;100.00;55103.28;2064428;28;20034;-66
2022/05/09 04:41:46;;;;;;;;;;;;;;;-143.90;100.00;55103.28;2068004;28;20178;-66
2022/05/09 04:43:08;;;;;;;1999.90;999.90;;;;;;;-143.90;100.00;55125.13;2068432;28;20023;-64
2022/05/09 04:44:29;;;;;;;1999.90;999.90;;;;;;;-143.90;100.00;55059.59;2066589;28;20299;-65
2022/05/09 04:45:50;;;;;;;1999.90;999.90;;;;;;;-143.90;100.00;55099.31;2066843;28;20319;-65
2022/05/09 04:47:10;;;;;;;1999.90;999.90;;;;;;;-143.90;100.00;55079.44;2067070;28;20276;-65
2022/05/09 04:48:31;;;;;;;1999.90;999.90;;;;;;;-143.90;100.00;55081.44;2065159;28;20049;-65
2022/05/09 04:49:52;;;;;;;1999.90;999.90;;;;;;;-143.90;100.00;55095.34;2065962;28;20052;-65
2022/05/09 04:51:15;;;;;;;1999.90;999.90;;;;;;;-143.90;100.00;55063.56;2067005;28;20104;-66
2022/05/09 04:52:36;;;;;;;1999.90;999.90;;;;;;;-143.90;100.00;55087.41;2068781;28;20372;-66
2022/05/09 04:53:56;;;;;;;1999.90;999.90;;;;;;;-143.90;100.00;55123.13;2067754;28;20065;-65
2022/05/09 04:55:18;;;;;;;1999.90;999.90;;;;;;;-143.90;100.00;55111.22;2066771;28;20280;-66
2022/05/09 04:56:38;;;;;;;1999.90;999.90;;;;;;;-143.90;100.00;55063.56;2066527;28;20037;-64
2022/05/09 04:58:02;;;;;;;1999.90;999.90;;;;;;;-143.90;100.00;55079.44;2068195;28;20048;-64
2022/05/09 04:59:23;;;;;;;1999.90;999.90;;;;;;;-143.90;100.00;55071.50;2066876;28;20030;-64
2022/05/09 05:00:44;;;;;;;1999.90;999.90;;;;;;;-143.90;100.00;55091.38;2068424;28;20203;-64
2022/05/09 05:02:05;;;;;;;1999.90;999.90;;;;;;;-143.90;100.00;55063.56;2068620;28;20042;-63
2022/05/09 05:03:26;;;;;;;1999.90;999.90;;;;;;;-143.90;100.00;55063.56;2068164;28;20489;-64
2022/05/09 05:04:48;;;;;;;1999.90;999.90;;;;;;;-143.90;100.00;55043.72;2067309;28;20501;-64
2022/05/09 05:06:09;;;;;;;1999.90;999.90;;;;;;;-143.90;100.00;55019.88;2066672;28;20059;-64
2022/05/09 05:07:29;;;;;;;1999.90;999.90;;;;;;;-143.90;100.00;55035.78;2067100;28;20049;-64
2022/05/09 05:08:50;;;;;;;1999.90;999.90;;;;;;;-143.90;100.00;55087.41;2068310;28;20034;-64
2022/05/09 05:10:12;;;;;;;1999.90;999.90;;;;;;;-143.90;100.00;55059.59;2068143;28;20276;-64
2022/05/09 05:11:32;;;;;;;1999.90;999.90;;;;;;;-143.90;100.00;55051.66;2067258;28;20050;-64
2022/05/09 05:12:53;;;;;;;1999.90;999.90;;;;;;;-143.90;100.00;55055.63;2066841;28;20527;-66
2022/05/09 05:14:14;;;;;;;1999.90;999.90;;;;;;;-143.90;100.00;55031.78;2065962;28;20037;-66
2022/05/09 05:15:36;;;;;;;1999.90;999.90;;;;;;;-143.90;100.00;55059.59;2066839;28;21138;-67
2022/05/09 05:16:59;;;;;;;1999.90;999.90;;;;;;;-143.90;100.00;55071.50;2068391;28;20034;-66
2022/05/09 05:18:23;;;;;;;1999.90;999.90;;;;;;;-143.90;100.00;55037.75;2067658;28;20569;-66
2022/05/09 05:19:44;;;;;;;1999.90;999.90;;;;;;;-143.90;98.86;55002.00;2068864;28;20054;-66
2022/05/09 05:21:13;;;;;;;1999.90;999.90;;;;;;;-143.90;96.79;55035.78;2067638;28;20120;-66
2022/05/09 05:22:36;;;;;;;1999.90;999.90;;;;;;;-143.90;94.65;54996.06;2066559;28;20072;-66
2022/05/09 05:23:59;;;;;;;1999.90;999.90;;;;;;;-143.90;91.67;55023.84;2067197;28;20037;-66
2022/05/09 05:25:23;;;;;;;1999.90;999.90;;;;;;;-143.90;90.68;55033.78;2065918;28;20870;-66
2022/05/09 05:26:44;;;;;;;1999.90;999.90;;;;;;;-143.90;89.99;55043.72;2067407;28;20042;-65
2022/05/09 05:28:05;;;;;;;1999.90;999.90;;;;;;;-143.90;89.36;55035.78;2065684;28;20037;-66
2022/05/09 05:29:26;;;;;;;1999.90;999.90;;;;;;;-143.90;90.95;55107.25;2067477;28;20040;-66
2022/05/09 05:30:49;;;;;;;1999.90;999.90;;;;;;;-143.90;89.64;55071.50;2067138;28;20034;-66
2022/05/09 05:32:18;;;;;;;1999.90;999.90;;;;;;;-143.90;89.66;55055.63;2065037;28;20040;-66
2022/05/09 05:33:39;;;;;;;1999.90;999.90;;;;;;;-143.90;87.24;55049.66;2065210;28;20404;-66
2022/05/09 05:35:01;;;;;;;1999.90;999.90;;;;;;;-143.90;84.58;55053.63;2066268;28;20034;-66
2022/05/09 05:36:21;;;;;;;1999.90;999.90;;;;;;;-143.90;88.14;55037.75;2065726;28;20386;-66
2022/05/09 05:37:42;;;;;;;1999.90;999.90;;;;;;;-143.90;87.10;55004.00;2067403;28;20081;-66
2022/05/09 05:39:03;;;;;;;1999.90;999.90;;;;;;;-143.90;84.42;55053.63;2066926;28;20276;-66
2022/05/09 05:40:24;;;;;;;1999.90;999.90;;;;;;;-143.90;81.76;55015.91;2065799;28;20029;-65
2022/05/09 05:41:45;;;;;;;1999.90;999.90;;;;;;;-143.90;81.53;54996.06;2065923;28;20394;-64
2022/05/09 05:43:06;;;;;;;1999.90;999.90;;;;;;;-143.90;79.85;55043.72;2067739;28;20074;-64
2022/05/09 05:44:27;;;;;;;1999.90;999.90;;;;;;;-143.90;80.24;55041.72;2066524;28;20037;-65
2022/05/09 05:45:48;;;;;;;1999.90;999.90;;;;;;;-143.90;80.88;55027.81;2067282;28;20056;-65
2022/05/09 05:47:11;;;;;;;1999.90;999.90;;;;;;;-143.90;82.46;55035.78;2067117;28;20095;-65
2022/05/09 05:48:32;;;;;;;1999.90;999.90;;;;;;;-143.90;79.55;55021.88;2066869;28;20513;-63
2022/05/09 05:49:53;;;;;;;1999.90;999.90;;;;;;;-143.90;80.18;55019.88;2067151;28;20120;-65
2022/05/09 05:51:18;;;;;;;1999.90;999.90;;;;;;;-143.90;79.95;55027.81;2065857;28;20092;-65
2022/05/09 05:52:39;;;;;;;1999.90;999.90;;;;;;;-143.90;79.70;55004.00;2066782;28;20112;-65
2022/05/09 05:54:00;;;;;;;1999.90;999.90;;;;;;;-143.90;79.01;55035.78;2068476;28;20030;-65
2022/05/09 05:55:20;;;;;;;1999.90;999.90;;;;;;;-143.90;78.33;55023.84;2067124;28;20065;-65
2022/05/09 05:56:41;;;;;;;1999.90;999.90;;;;;;;-143.90;78.27;55035.78;2067085;28;20040;-65
2022/05/09 05:58:02;;;;;;;1999.90;999.90;;;;;;;-143.90;77.06;54994.06;2066046;28;20469;-65
2022/05/09 05:59:25;;;;;;;1999.90;999.90;;;;;;;-143.90;73.97;55021.88;2066339;28;20581;-65
2022/05/09 06:00:49;;;;;;;1999.90;999.90;;;;;;;-143.90;75.03;55015.91;2064930;28;20109;-65